createdAt,value
2023-07-12T10:30:14.452Z,19.42
2023-07-12T10:32:48.710Z,19.41
2023-07-12T10:35:37.076Z,19.61
2023-07-12T10:38:15.255Z,19.71
2023-07-12T10:41:12.065Z,19.74
2023-07-12T10:43:46.072Z,19.63
2023-07-12T10:46:42.860Z,19.60
2023-07-12T10:49:18.513Z,19.47
2023-07-12T10:52:04.705Z,19.30
2023-07-12T10:54:32.423Z,19.14
2023-07-12T10:57:28.757Z,19.03
2023-07-12T11:00:18.707Z,18.72
2023-07-12T11:03:10.443Z,18.68
2023-07-12T11:05:42.070Z,18.46
2023-07-12T11:08:34.538Z,18.49
2023-07-12T11:11:22.272Z,18.46
2023-07-12T11:14:13.843Z,18.40
2023-07-12T11:17:06.038Z,18.38
2023-07-12T11:19:39.833Z,18.45
2023-07-12T11:22:44.353Z,18.57
2023-07-12T11:25:50.340Z,18.79
2023-07-12T11:28:24.179Z,18.63
2023-07-12T11:31:16.451Z,18.73
2023-07-12T11:34:06.953Z,18.74
2023-07-12T11:36:36.869Z,18.67
2023-07-12T11:39:14.640Z,18.67
2023-07-12T11:41:53.472Z,18.85
2023-07-12T11:44:21.129Z,18.91
2023-07-12T11:46:52.081Z,19.32
2023-07-12T11:49:27.774Z,19.62
2023-07-12T11:51:58.545Z,20.07
2023-07-12T11:54:27.280Z,20.44
2023-07-12T11:57:04.051Z,20.51
2023-07-12T11:59:37.815Z,20.24
2023-07-12T12:02:22.460Z,20.10
2023-07-12T12:05:00.567Z,19.83
2023-07-12T12:07:40.563Z,19.67
2023-07-12T12:10:16.772Z,19.53
2023-07-12T12:12:49.156Z,19.60
2023-07-12T12:15:24.678Z,19.55
2023-07-12T12:17:54.669Z,19.60
2023-07-12T12:20:29.857Z,19.71
2023-07-12T12:23:13.530Z,19.82
2023-07-12T12:25:48.098Z,19.95
2023-07-12T12:28:33.908Z,20.20
2023-07-12T12:31:32.277Z,20.34
2023-07-12T12:34:26.099Z,20.22
2023-07-12T12:37:08.702Z,20.44
2023-07-12T12:39:37.249Z,20.73
2023-07-12T12:42:19.738Z,21.02
2023-07-12T12:44:47.331Z,20.99
2023-07-12T12:47:21.004Z,20.79
2023-07-12T12:51:01.832Z,20.65
2023-07-12T12:55:18.150Z,20.31
2023-07-12T13:05:34.113Z,20.16
2023-07-12T13:16:07.591Z,20.39
2023-07-12T13:19:02.489Z,20.34
2023-07-12T13:21:23.061Z,20.53
2023-07-12T13:23:51.434Z,20.50
2023-07-12T13:26:22.065Z,20.46
2023-07-12T13:28:50.259Z,20.47
2023-07-12T13:31:20.290Z,20.34
2023-07-12T13:36:31.538Z,20.54
2023-07-12T13:46:46.948Z,20.75
2023-07-12T13:49:16.419Z,20.71
2023-07-12T13:51:44.901Z,20.44
2023-07-12T13:54:13.373Z,20.23
2023-07-12T14:01:45.389Z,19.89
2023-07-12T14:09:19.460Z,19.65
2023-07-12T14:11:48.533Z,19.65
2023-07-12T14:14:17.063Z,19.72
2023-07-12T14:16:44.998Z,19.71
2023-07-12T14:19:12.699Z,19.98
2023-07-12T14:21:40.413Z,20.04
2023-07-12T14:24:12.109Z,19.97
2023-07-12T14:26:39.714Z,20.08
2023-07-12T14:29:09.858Z,20.04
2023-07-12T14:31:56.286Z,19.97
2023-07-12T14:34:24.793Z,19.86
2023-07-12T14:36:52.390Z,19.74
2023-07-12T14:39:19.948Z,19.71
2023-07-12T14:41:47.576Z,19.66
2023-07-12T14:44:17.485Z,19.61
2023-07-12T14:46:45.925Z,19.52
2023-07-12T14:49:13.674Z,19.54
2023-07-12T14:51:43.496Z,19.60
2023-07-12T14:54:17.805Z,19.73
2023-07-12T14:56:45.411Z,19.71
2023-07-12T14:59:13.476Z,19.69
2023-07-12T15:01:41.155Z,19.56
2023-07-12T15:04:14.797Z,19.45
2023-07-12T15:06:42.468Z,19.36
2023-07-12T15:10:03.964Z,19.15
2023-07-12T15:11:57.601Z,18.87
2023-07-12T15:14:25.169Z,18.67
2023-07-12T15:16:55.806Z,18.42
2023-07-12T15:19:23.598Z,18.29
2023-07-12T15:21:51.187Z,18.21
2023-07-12T15:24:18.691Z,18.07
2023-07-12T15:26:46.297Z,17.97
2023-07-12T15:29:16.271Z,17.93
2023-07-12T15:31:44.202Z,17.85
2023-07-12T15:34:12.302Z,17.83
2023-07-12T15:36:39.956Z,17.80
2023-07-12T15:39:07.540Z,17.77
2023-07-12T15:41:36.482Z,17.76
2023-07-12T15:44:06.173Z,17.81
2023-07-12T15:46:34.046Z,17.85
2023-07-12T15:49:02.270Z,17.97
2023-07-12T15:51:38.176Z,18.09
2023-07-12T15:54:27.389Z,18.19
2023-07-12T15:56:55.387Z,18.17
2023-07-12T15:59:27.920Z,18.10
2023-07-12T16:01:57.926Z,17.97
2023-07-12T16:04:25.778Z,17.81
2023-07-12T16:06:53.444Z,17.75
2023-07-12T16:09:21.095Z,17.62
2023-07-12T16:11:48.834Z,17.56
2023-07-12T16:14:22.811Z,17.57
2023-07-12T16:16:51.810Z,17.40
2023-07-12T16:19:19.868Z,17.32
2023-07-12T16:21:48.373Z,17.23
2023-07-12T16:24:17.978Z,17.13
2023-07-12T16:26:45.960Z,17.02
2023-07-12T16:29:14.153Z,16.88
2023-07-12T16:31:46.524Z,16.72
2023-07-12T16:34:17.365Z,16.61
2023-07-12T16:36:46.180Z,16.40
2023-07-12T16:39:14.791Z,16.40
2023-07-12T16:41:44.340Z,16.24
2023-07-12T16:44:20.683Z,16.19
2023-07-12T16:46:49.472Z,16.10
2023-07-12T16:49:18.228Z,16.03
2023-07-12T16:51:52.472Z,15.94
2023-07-12T16:54:21.835Z,15.87
2023-07-12T16:56:49.708Z,15.82
2023-07-12T16:59:19.096Z,15.75
2023-07-12T17:01:47.354Z,15.72
2023-07-12T17:04:18.636Z,15.64
2023-07-12T17:06:47.479Z,15.68
2023-07-12T17:09:26.638Z,15.68
2023-07-12T17:11:55.737Z,15.59
2023-07-12T17:14:23.414Z,15.56
2023-07-12T17:16:51.251Z,15.55
2023-07-12T17:19:21.332Z,15.46
2023-07-12T17:21:48.964Z,15.48
2023-07-12T17:24:18.611Z,15.39
2023-07-12T17:26:46.672Z,15.34
2023-07-12T17:29:15.319Z,15.33
2023-07-12T17:31:45.633Z,15.32
2023-07-12T17:34:28.019Z,15.33
2023-07-12T17:36:57.248Z,15.25
2023-07-12T17:39:25.596Z,15.16
2023-07-12T17:41:54.390Z,15.20
2023-07-12T17:44:22.547Z,15.11
2023-07-12T17:46:52.505Z,15.09
2023-07-12T17:49:20.417Z,15.11
2023-07-12T17:51:48.159Z,15.05
2023-07-12T17:54:17.069Z,15.04
2023-07-12T17:56:45.162Z,15.01
2023-07-12T17:59:15.346Z,14.99
2023-07-12T18:01:44.087Z,15.05
2023-07-12T18:04:16.017Z,14.98
2023-07-12T18:06:43.774Z,15.05
2023-07-12T18:09:11.756Z,14.99
2023-07-12T18:11:42.156Z,14.99
2023-07-12T18:14:23.398Z,14.98
2023-07-12T18:16:53.055Z,14.88
2023-07-12T18:19:20.927Z,14.83
2023-07-12T18:21:49.477Z,14.78
2023-07-12T18:24:22.529Z,14.73
2023-07-12T18:26:52.484Z,14.69
2023-07-12T18:29:20.383Z,14.64
2023-07-12T18:31:48.355Z,14.54
2023-07-12T18:34:16.620Z,14.53
2023-07-12T18:36:45.164Z,14.55
2023-07-12T18:39:16.559Z,14.59
2023-07-12T18:41:44.180Z,14.62
2023-07-12T18:44:13.117Z,14.65
2023-07-12T18:46:41.038Z,14.69
2023-07-12T18:49:08.943Z,14.71
2023-07-12T18:51:36.798Z,14.72
2023-07-12T18:54:06.760Z,14.74
2023-07-12T18:56:36.482Z,14.75
2023-07-12T18:59:06.259Z,14.71
2023-07-12T19:01:34.494Z,14.79
2023-07-12T19:04:06.026Z,14.79
2023-07-12T19:06:36.740Z,14.81
2023-07-12T19:09:06.719Z,14.85
2023-07-12T19:11:51.075Z,14.92
2023-07-12T19:14:21.022Z,14.89
2023-07-12T19:16:49.884Z,14.87
2023-07-12T19:19:17.963Z,14.89
2023-07-12T19:21:47.238Z,14.84
2023-07-12T19:24:15.291Z,14.92
2023-07-12T19:26:43.064Z,14.96
2023-07-12T19:29:10.903Z,14.99
2023-07-12T19:31:48.948Z,14.99
2023-07-12T19:34:22.712Z,15.05
2023-07-12T19:36:52.318Z,15.06
2023-07-12T19:39:20.351Z,15.06
2023-07-12T19:41:49.468Z,15.01
2023-07-12T19:44:18.008Z,15.00
2023-07-12T19:46:46.662Z,14.95
2023-07-12T19:49:15.314Z,14.95
2023-07-12T19:51:45.185Z,14.93
2023-07-12T19:54:18.346Z,14.90
2023-07-12T19:56:46.704Z,14.86
2023-07-12T19:59:14.925Z,14.80
2023-07-12T20:01:42.898Z,14.70
2023-07-12T20:04:10.635Z,14.71
2023-07-12T20:06:38.390Z,14.66
2023-07-12T20:09:07.258Z,14.61
2023-07-12T20:11:36.261Z,14.58
2023-07-12T20:14:04.679Z,14.52
2023-07-12T20:16:33.784Z,14.45
2023-07-12T20:19:01.968Z,14.43
2023-07-12T20:21:36.567Z,14.37
2023-07-12T20:24:04.782Z,14.36
2023-07-12T20:26:33.961Z,14.34
2023-07-12T20:29:02.066Z,14.28
2023-07-12T20:31:29.862Z,14.21
2023-07-12T20:33:57.706Z,14.17
2023-07-12T20:36:25.644Z,14.24
2023-07-12T20:38:54.092Z,14.23
2023-07-12T20:41:21.884Z,14.13
2023-07-12T20:43:49.628Z,14.18
2023-07-12T20:46:17.336Z,14.18
2023-07-12T20:48:45.218Z,14.17
2023-07-12T20:51:17.693Z,14.17
2023-07-12T20:53:50.368Z,14.15
2023-07-12T20:56:22.918Z,14.13
2023-07-12T20:58:51.462Z,14.12
2023-07-12T21:01:22.691Z,14.12
2023-07-12T21:03:52.007Z,14.13
2023-07-12T21:06:20.933Z,14.13
2023-07-12T21:08:49.391Z,14.10
2023-07-12T21:11:18.737Z,14.11
2023-07-12T21:13:46.493Z,14.03
2023-07-12T21:16:16.475Z,14.03
2023-07-12T21:18:45.634Z,14.06
2023-07-12T21:21:13.592Z,14.06
2023-07-12T21:23:41.744Z,14.07
2023-07-12T21:26:09.903Z,14.06
2023-07-12T21:28:38.355Z,14.07
2023-07-12T21:31:08.793Z,14.07
2023-07-12T21:33:36.759Z,14.02
2023-07-12T21:36:06.330Z,14.11
2023-07-12T21:38:35.081Z,14.10
2023-07-12T21:41:12.919Z,14.08
2023-07-12T21:43:41.491Z,14.11
2023-07-12T21:46:11.549Z,14.13
2023-07-12T21:48:39.447Z,14.12
2023-07-12T21:51:07.178Z,14.15
2023-07-12T21:53:34.881Z,14.15
2023-07-12T21:56:02.792Z,14.18
2023-07-12T21:58:30.530Z,14.10
2023-07-12T22:00:58.305Z,14.19
2023-07-12T22:03:26.176Z,14.11
2023-07-12T22:05:54.088Z,14.22
2023-07-12T22:08:21.859Z,14.21
2023-07-12T22:10:50.172Z,14.19
2023-07-12T22:13:17.872Z,14.20
2023-07-12T22:15:45.551Z,14.21
2023-07-12T22:18:13.347Z,14.15
2023-07-12T22:20:40.975Z,14.22
2023-07-12T22:23:08.735Z,14.22
2023-07-12T22:25:37.072Z,14.19
2023-07-12T22:28:05.690Z,14.15
2023-07-12T22:30:36.197Z,14.15
2023-07-12T22:33:04.414Z,14.11
2023-07-12T22:35:33.290Z,14.11
2023-07-12T22:38:01.552Z,14.11
2023-07-12T22:40:30.390Z,14.10
2023-07-12T22:42:59.111Z,14.03
2023-07-12T22:45:28.158Z,14.11
2023-07-12T22:47:56.015Z,14.12
2023-07-12T22:50:24.138Z,14.12
2023-07-12T22:52:52.386Z,14.13
2023-07-12T22:55:20.737Z,14.11
2023-07-12T22:57:48.711Z,14.08
2023-07-12T23:00:19.921Z,14.16
2023-07-12T23:02:49.168Z,14.16
2023-07-12T23:05:19.405Z,14.21
2023-07-12T23:07:48.353Z,14.23
2023-07-12T23:10:21.307Z,14.24
2023-07-12T23:12:50.398Z,14.25
2023-07-12T23:15:21.878Z,14.23
2023-07-12T23:17:52.521Z,14.28
2023-07-12T23:20:21.381Z,14.29
2023-07-12T23:22:49.159Z,14.21
2023-07-12T23:25:26.338Z,14.31
2023-07-12T23:27:55.806Z,14.32
2023-07-12T23:30:24.994Z,14.32
2023-07-12T23:32:53.305Z,14.23
2023-07-12T23:35:21.258Z,14.31
2023-07-12T23:37:48.881Z,14.24
2023-07-12T23:40:16.544Z,14.26
2023-07-12T23:42:44.163Z,14.30
2023-07-12T23:45:12.421Z,14.29
2023-07-12T23:47:40.194Z,14.32
2023-07-12T23:50:08.424Z,14.31
2023-07-12T23:52:36.010Z,14.30
2023-07-12T23:55:04.205Z,14.31
2023-07-12T23:57:33.001Z,14.29
